createdAt,value
2023-04-11T00:00:54.019Z,15.9805
2023-04-11T00:01:55.684Z,15.9473
2023-04-11T00:02:57.621Z,15.9068
2023-04-11T00:03:59.146Z,15.8511
2023-04-11T00:05:00.739Z,15.8542
2023-04-11T00:06:02.279Z,15.8639
2023-04-11T00:07:03.902Z,15.9460
2023-04-11T00:08:05.642Z,15.9489
2023-04-11T00:09:07.216Z,15.9052
2023-04-11T00:10:08.871Z,15.8928
2023-04-11T00:11:10.649Z,15.8801
2023-04-11T00:12:12.180Z,15.8961
2023-04-11T00:13:13.935Z,15.9397
2023-04-11T00:14:16.097Z,15.9563
2023-04-11T00:15:17.141Z,15.9310
2023-04-11T00:16:18.851Z,15.8374
2023-04-11T00:17:20.471Z,15.5660
2023-04-11T00:18:22.165Z,15.5163
2023-04-11T00:19:23.770Z,15.6562
2023-04-11T00:20:25.449Z,15.9148
2023-04-11T00:21:27.126Z,16.0796
2023-04-11T00:22:28.744Z,16.1280
2023-04-11T00:23:31.292Z,16.0522
2023-04-11T00:24:32.073Z,15.9769
2023-04-11T00:25:33.796Z,15.8735
2023-04-11T00:26:35.370Z,15.8392
2023-04-11T00:27:37.019Z,15.8746
2023-04-11T00:28:38.766Z,15.9156
2023-04-11T00:29:40.417Z,15.9549
2023-04-11T00:30:42.031Z,15.9569
2023-04-11T00:31:43.742Z,15.9664
2023-04-11T00:32:45.366Z,15.8863
2023-04-11T00:33:47.058Z,15.8193
2023-04-11T00:34:48.714Z,15.8043
2023-04-11T00:35:50.364Z,15.8390
2023-04-11T00:36:52.034Z,15.8472
2023-04-11T00:37:53.576Z,15.8400
2023-04-11T00:38:56.001Z,15.8302
2023-04-11T00:39:57.013Z,15.8559
2023-04-11T00:40:58.625Z,15.8618
2023-04-11T00:42:00.321Z,15.8668
2023-04-11T00:43:02.045Z,15.9021
2023-04-11T00:44:03.638Z,15.8752
2023-04-11T00:45:05.264Z,15.8298
2023-04-11T00:46:07.030Z,15.6784
2023-04-11T00:47:08.675Z,15.3598
2023-04-11T00:48:10.227Z,15.4399
2023-04-11T00:49:11.904Z,15.6268
2023-04-11T00:50:13.558Z,15.8464
2023-04-11T00:51:15.291Z,16.0062
2023-04-11T00:52:16.857Z,16.0202
2023-04-11T00:53:18.548Z,15.9487
2023-04-11T00:54:20.213Z,15.8678
2023-04-11T00:55:21.800Z,15.8051
2023-04-11T00:56:23.432Z,15.7560
2023-04-11T00:57:25.155Z,15.7704
2023-04-11T00:58:26.790Z,15.8327
2023-04-11T00:59:28.395Z,15.8704
2023-04-11T01:00:30.176Z,15.9060
2023-04-11T01:01:32.801Z,15.9440
2023-04-11T01:02:33.446Z,15.8984
2023-04-11T01:03:35.160Z,15.8594
2023-04-11T01:04:36.770Z,15.7712
2023-04-11T01:05:38.401Z,15.7879
2023-04-11T01:06:40.032Z,15.7725
2023-04-11T01:07:41.678Z,15.8709
2023-04-11T01:08:43.304Z,15.9058
2023-04-11T01:09:45.006Z,15.8778
2023-04-11T01:10:46.634Z,15.8444
2023-04-11T01:11:48.266Z,15.8136
2023-04-11T01:12:49.906Z,15.8041
2023-04-11T01:13:51.592Z,15.8386
2023-04-11T01:14:53.267Z,15.8172
2023-04-11T01:15:54.927Z,15.7953
2023-04-11T01:16:56.699Z,15.8374
2023-04-11T01:17:58.258Z,15.8641
2023-04-11T01:18:59.901Z,15.8450
2023-04-11T01:20:01.766Z,15.7961
2023-04-11T01:21:03.177Z,15.7926
2023-04-11T01:22:04.755Z,15.7977
2023-04-11T01:23:05.306Z,15.7657
2023-04-11T01:24:08.139Z,15.7481
2023-04-11T01:25:10.247Z,15.7721
2023-04-11T01:26:11.518Z,15.5726
2023-04-11T01:27:13.170Z,15.4278
2023-04-11T01:28:14.891Z,15.4461
2023-04-11T01:29:16.409Z,15.6096
2023-04-11T01:30:18.237Z,15.8429
2023-04-11T01:31:19.728Z,15.9873
2023-04-11T01:32:21.436Z,16.0140
2023-04-11T01:33:23.063Z,15.9175
2023-04-11T01:34:24.755Z,15.8431
2023-04-11T01:35:27.212Z,15.8090
2023-04-11T01:36:28.023Z,15.7300
2023-04-11T01:37:29.590Z,15.7433
2023-04-11T01:38:31.290Z,15.7503
2023-04-11T01:39:33.011Z,15.8121
2023-04-11T01:40:34.649Z,15.8766
2023-04-11T01:41:36.251Z,15.9216
2023-04-11T01:42:38.001Z,15.9333
2023-04-11T01:43:39.529Z,15.9091
2023-04-11T01:44:41.200Z,15.8680
2023-04-11T01:45:42.881Z,15.8382
2023-04-11T01:46:44.561Z,15.8302
2023-04-11T01:47:47.046Z,15.8292
2023-04-11T01:48:47.945Z,15.8199
2023-04-11T01:49:49.485Z,15.7895
2023-04-11T01:50:51.152Z,15.8068
2023-04-11T01:51:52.795Z,15.8234
2023-04-11T01:52:54.524Z,15.8012
2023-04-11T01:53:56.123Z,15.7745
2023-04-11T01:54:58.291Z,15.7540
2023-04-11T01:55:59.416Z,15.7326
2023-04-11T01:57:01.016Z,15.7599
2023-04-11T01:58:02.737Z,15.8111
2023-04-11T01:59:04.393Z,15.8563
2023-04-11T02:00:06.706Z,15.8351
2023-04-11T02:01:07.859Z,15.7953
2023-04-11T02:02:09.471Z,15.7832
2023-04-11T02:03:11.121Z,15.7944
2023-04-11T02:04:12.825Z,15.7484
2023-04-11T02:05:14.344Z,15.6679
2023-04-11T02:06:16.598Z,15.6418
2023-04-11T02:07:17.658Z,15.7493
2023-04-11T02:08:19.218Z,15.9561
2023-04-11T02:09:20.892Z,16.0418
2023-04-11T02:10:22.533Z,16.0405
2023-04-11T02:11:24.322Z,15.9419
2023-04-11T02:12:25.870Z,15.8427
2023-04-11T02:13:27.416Z,15.7729
2023-04-11T02:14:29.133Z,15.7334
2023-04-11T02:15:30.934Z,15.7351
2023-04-11T02:16:32.536Z,15.7988
2023-04-11T02:17:34.226Z,15.8273
2023-04-11T02:18:35.728Z,15.8394
2023-04-11T02:19:37.457Z,15.9084
2023-04-11T02:20:39.140Z,15.9612
2023-04-11T02:21:40.790Z,15.9621
2023-04-11T02:22:42.458Z,15.9512
2023-04-11T02:23:44.147Z,15.9000
2023-04-11T02:24:45.741Z,15.8306
2023-04-11T02:25:48.224Z,15.8339
2023-04-11T02:26:49.148Z,15.8538
2023-04-11T02:27:50.803Z,15.8947
2023-04-11T02:28:52.462Z,15.9290
2023-04-11T02:29:54.031Z,15.9506
2023-04-11T02:30:55.732Z,15.8939
2023-04-11T02:31:57.374Z,15.8277
2023-04-11T02:32:59.028Z,15.7996
2023-04-11T02:34:00.635Z,15.8000
2023-04-11T02:35:02.320Z,15.8242
2023-04-11T02:36:04.110Z,15.8468
2023-04-11T02:37:05.747Z,15.6139
2023-04-11T02:38:07.189Z,15.4983
2023-04-11T02:39:08.912Z,15.5284
2023-04-11T02:40:10.495Z,15.6468
2023-04-11T02:41:12.190Z,15.8240
2023-04-11T02:42:14.583Z,15.9497
2023-04-11T02:43:15.601Z,15.9409
2023-04-11T02:44:17.207Z,15.8528
2023-04-11T02:45:18.881Z,15.7797
2023-04-11T02:46:20.443Z,15.7308
2023-04-11T02:47:22.362Z,15.7030
2023-04-11T02:48:23.861Z,15.7324
2023-04-11T02:49:25.428Z,15.7515
2023-04-11T02:50:27.124Z,15.8096
2023-04-11T02:51:28.816Z,15.8914
2023-04-11T02:52:30.444Z,15.9440
2023-04-11T02:53:32.075Z,15.9536
2023-04-11T02:54:33.806Z,15.9754
2023-04-11T02:55:35.422Z,16.3110
2023-04-11T02:56:37.019Z,16.8476
2023-04-11T02:57:38.648Z,17.2773
2023-04-11T02:58:40.324Z,17.5593
2023-04-11T02:59:41.942Z,17.8175
2023-04-11T03:00:43.644Z,17.9650
2023-04-11T03:01:45.351Z,17.9734
2023-04-11T03:02:46.933Z,17.8740
2023-04-11T03:03:48.595Z,17.7990
2023-04-11T03:04:50.207Z,17.7035
2023-04-11T03:05:51.785Z,17.6197
2023-04-11T03:06:53.438Z,17.5075
2023-04-11T03:07:55.237Z,17.5057
2023-04-11T03:08:57.489Z,17.5646
2023-04-11T03:09:58.526Z,17.5977
2023-04-11T03:11:00.082Z,17.6201
2023-04-11T03:12:01.726Z,17.5515
2023-04-11T03:13:04.312Z,17.5178
2023-04-11T03:14:05.070Z,17.5661
2023-04-11T03:15:06.738Z,17.6335
2023-04-11T03:16:08.435Z,17.6524
2023-04-11T03:17:09.986Z,17.6585
2023-04-11T03:18:11.698Z,17.6589
2023-04-11T03:19:13.423Z,17.6123
2023-04-11T03:20:14.993Z,17.6380
2023-04-11T03:21:16.620Z,17.6988
2023-04-11T03:22:18.256Z,17.7532
2023-04-11T03:23:19.963Z,17.8210
2023-04-11T03:24:21.591Z,17.8311
2023-04-11T03:25:23.335Z,17.8411
2023-04-11T03:26:24.942Z,17.7955
2023-04-11T03:27:26.547Z,17.7142
2023-04-11T03:28:29.236Z,17.6893
2023-04-11T03:29:29.905Z,17.7031
2023-04-11T03:30:31.512Z,17.7468
2023-04-11T03:31:33.195Z,17.7803
2023-04-11T03:32:34.848Z,17.8111
2023-04-11T03:33:37.387Z,17.8124
2023-04-11T03:34:38.198Z,17.7431
2023-04-11T03:35:39.887Z,17.7304
2023-04-11T03:36:41.491Z,17.7522
2023-04-11T03:37:43.076Z,17.8500
2023-04-11T03:38:44.699Z,17.8799
2023-04-11T03:39:46.477Z,17.8649
2023-04-11T03:40:48.070Z,17.8590
2023-04-11T03:41:49.738Z,17.8689
2023-04-11T03:42:51.368Z,17.8428
2023-04-11T03:43:53.013Z,17.8247
2023-04-11T03:44:54.740Z,17.8286
2023-04-11T03:45:56.380Z,17.8580
2023-04-11T03:46:58.067Z,17.8982
2023-04-11T03:47:59.660Z,17.9311
2023-04-11T03:49:01.270Z,17.9317
2023-04-11T03:50:03.291Z,17.9446
2023-04-11T03:51:04.602Z,17.9642
2023-04-11T03:52:06.216Z,17.9101
2023-04-11T03:53:07.854Z,17.8193
2023-04-11T03:54:09.514Z,17.7549
2023-04-11T03:55:11.186Z,17.7830
2023-04-11T03:56:12.822Z,17.8623
2023-04-11T03:57:14.587Z,17.9387
2023-04-11T03:58:16.168Z,17.9543
2023-04-11T03:59:17.816Z,17.9412
2023-04-11T04:00:20.139Z,17.9159
2023-04-11T04:01:21.141Z,17.8939
2023-04-11T04:02:22.957Z,17.8771
2023-04-11T04:03:24.680Z,17.8613
2023-04-11T04:04:26.262Z,17.9151
2023-04-11T04:05:27.752Z,17.9592
2023-04-11T04:06:29.370Z,17.9775
2023-04-11T04:07:31.077Z,17.9738
2023-04-11T04:08:32.690Z,17.9648
2023-04-11T04:09:34.431Z,17.9420
2023-04-11T04:10:35.973Z,17.8933
2023-04-11T04:11:37.665Z,17.9235
2023-04-11T04:12:39.362Z,17.9027
2023-04-11T04:13:40.979Z,17.9603
2023-04-11T04:14:42.662Z,17.9771
2023-04-11T04:15:44.300Z,17.9958
2023-04-11T04:16:46.060Z,17.9958
2023-04-11T04:17:47.618Z,17.9683
2023-04-11T04:18:49.249Z,17.9280
2023-04-11T04:19:50.903Z,17.9247
2023-04-11T04:20:52.533Z,17.9270
2023-04-11T04:21:54.210Z,17.9506
2023-04-11T04:22:55.830Z,17.9999
2023-04-11T04:23:57.622Z,17.9771
2023-04-11T04:24:59.445Z,17.9512
2023-04-11T04:26:00.831Z,17.9732
2023-04-11T04:27:02.528Z,18.0161
2023-04-11T04:28:04.081Z,18.0486
2023-04-11T04:29:05.756Z,18.0691
2023-04-11T04:30:07.462Z,18.0533
2023-04-11T04:31:09.078Z,18.0042
2023-04-11T04:32:10.883Z,17.9835
2023-04-11T04:33:12.535Z,17.9557
2023-04-11T04:34:14.007Z,17.9040
2023-04-11T04:35:15.672Z,17.8970
2023-04-11T04:36:17.225Z,17.9297
2023-04-11T04:37:18.940Z,17.9679
2023-04-11T04:38:20.556Z,18.0007
2023-04-11T04:39:22.208Z,18.0028
2023-04-11T04:40:23.913Z,17.9642
2023-04-11T04:41:25.517Z,17.8949
2023-04-11T04:42:27.172Z,17.8709
2023-04-11T04:43:28.925Z,17.8919
2023-04-11T04:44:30.529Z,17.9015
2023-04-11T04:45:32.374Z,17.8649
2023-04-11T04:46:33.828Z,17.8196
2023-04-11T04:47:35.529Z,17.8382
2023-04-11T04:48:37.124Z,17.8719
2023-04-11T04:49:38.762Z,17.8440
2023-04-11T04:50:40.474Z,17.8557
2023-04-11T04:51:42.072Z,17.8625
2023-04-11T04:52:43.666Z,17.8282
2023-04-11T04:53:45.430Z,17.7935
2023-04-11T04:54:47.078Z,17.8013
2023-04-11T04:55:48.736Z,17.9085
2023-04-11T04:56:50.329Z,17.9617
2023-04-11T04:57:52.051Z,17.9309
2023-04-11T04:58:53.575Z,18.0011
2023-04-11T04:59:55.289Z,18.0471
2023-04-11T05:00:56.952Z,18.0989
2023-04-11T05:01:58.639Z,18.1562
2023-04-11T05:03:00.398Z,18.1351
2023-04-11T05:04:02.489Z,18.0365
2023-04-11T05:05:03.623Z,17.9249
2023-04-11T05:06:05.257Z,17.8941
2023-04-11T05:07:06.873Z,17.8951
2023-04-11T05:08:08.506Z,17.9023
2023-04-11T05:09:10.153Z,17.9516
2023-04-11T05:10:11.832Z,17.9816
2023-04-11T05:11:13.798Z,18.0122
2023-04-11T05:12:15.064Z,18.0083
2023-04-11T05:13:16.704Z,17.9399
2023-04-11T05:14:18.388Z,17.8588
2023-04-11T05:15:20.416Z,17.8239
2023-04-11T05:16:21.817Z,17.8719
2023-04-11T05:17:25.182Z,18.0159
2023-04-11T05:18:25.046Z,18.1346
2023-04-11T05:19:26.681Z,18.1634
2023-04-11T05:20:29.250Z,18.1170
2023-04-11T05:21:30.835Z,17.9449
2023-04-11T05:22:31.625Z,17.8875
2023-04-11T05:23:33.372Z,17.9987
2023-04-11T05:24:34.987Z,18.2094
2023-04-11T05:25:36.754Z,18.3493
2023-04-11T05:26:38.966Z,18.3107
2023-04-11T05:27:39.994Z,18.1203
2023-04-11T05:28:41.782Z,18.0745
2023-04-11T05:29:43.345Z,18.1316
2023-04-11T05:30:44.968Z,18.3431
2023-04-11T05:31:46.924Z,18.4830
2023-04-11T05:32:48.345Z,18.4035
2023-04-11T05:33:51.017Z,18.1885
2023-04-11T05:34:51.635Z,18.1238
2023-04-11T05:35:53.324Z,18.2413
2023-04-11T05:36:54.875Z,18.4491
2023-04-11T05:37:56.742Z,18.5668
2023-04-11T05:38:58.260Z,18.4966
2023-04-11T05:39:59.820Z,18.3080
2023-04-11T05:41:01.453Z,18.2222
2023-04-11T05:42:03.151Z,18.3064
2023-04-11T05:43:04.999Z,18.5165
2023-04-11T05:44:06.390Z,18.6605
2023-04-11T05:45:08.089Z,18.6063
2023-04-11T05:46:09.740Z,18.3970
2023-04-11T05:47:11.595Z,18.2951
2023-04-11T05:48:14.227Z,18.3700
2023-04-11T05:49:14.788Z,18.5695
2023-04-11T05:50:16.483Z,18.6956
2023-04-11T05:51:18.194Z,18.6159
2023-04-11T05:52:19.930Z,18.4259
2023-04-11T05:53:21.376Z,18.3813
2023-04-11T05:54:23.044Z,18.4769
2023-04-11T05:55:24.719Z,18.6689
2023-04-11T05:56:26.352Z,18.7593
2023-04-11T05:57:28.337Z,18.6200
2023-04-11T05:58:29.673Z,18.4736
2023-04-11T05:59:31.364Z,18.4625
2023-04-11T06:00:32.958Z,18.6116
2023-04-11T06:01:34.520Z,18.7993
2023-04-11T06:02:36.295Z,18.8285
2023-04-11T06:03:37.912Z,18.6644
2023-04-11T06:04:40.117Z,18.5073
2023-04-11T06:05:41.133Z,18.5085
2023-04-11T06:06:42.752Z,18.7018
2023-04-11T06:07:44.443Z,18.8723
2023-04-11T06:08:46.159Z,18.8532
2023-04-11T06:09:47.834Z,18.6369
2023-04-11T06:10:49.502Z,18.4943
2023-04-11T06:11:51.124Z,18.5432
2023-04-11T06:12:52.780Z,18.7529
2023-04-11T06:13:54.545Z,18.9158
2023-04-11T06:14:56.019Z,18.8864
2023-04-11T06:15:57.873Z,18.7005
2023-04-11T06:16:59.391Z,18.6245
2023-04-11T06:18:01.196Z,18.6882
2023-04-11T06:19:02.649Z,18.8659
2023-04-11T06:20:05.919Z,18.9472
2023-04-11T06:21:06.125Z,18.8195
2023-04-11T06:22:07.758Z,18.6350
2023-04-11T06:23:09.968Z,18.6346
2023-04-11T06:24:10.915Z,18.7782
2023-04-11T06:25:12.602Z,18.9394
2023-04-11T06:26:14.234Z,18.9982
2023-04-11T06:27:16.844Z,18.8320
2023-04-11T06:28:17.642Z,18.7104
2023-04-11T06:29:19.945Z,18.7755
2023-04-11T06:30:21.051Z,18.9055
2023-04-11T06:31:23.569Z,19.0066
2023-04-11T06:32:24.633Z,18.9561
2023-04-11T06:33:25.755Z,18.7747
2023-04-11T06:34:27.677Z,18.6895
2023-04-11T06:35:29.166Z,18.7427
2023-04-11T06:36:30.787Z,18.9602
2023-04-11T06:37:32.512Z,19.0469
2023-04-11T06:38:34.586Z,18.9310
2023-04-11T06:39:35.825Z,18.7878
2023-04-11T06:40:37.452Z,18.8002
2023-04-11T06:41:39.026Z,18.9423
2023-04-11T06:42:41.050Z,19.0935
2023-04-11T06:43:42.539Z,19.0808
2023-04-11T06:44:44.373Z,18.9014
2023-04-11T06:45:45.652Z,18.8174
2023-04-11T06:46:47.488Z,18.8601
2023-04-11T06:47:49.075Z,19.0682
2023-04-11T06:48:50.634Z,19.1418
2023-04-11T06:49:52.240Z,19.0409
2023-04-11T06:50:55.046Z,18.8415
2023-04-11T06:51:55.548Z,18.7905
2023-04-11T06:52:57.299Z,18.8912
2023-04-11T06:53:58.888Z,19.0898
2023-04-11T06:55:00.564Z,19.1882
2023-04-11T06:56:02.164Z,19.0787
2023-04-11T06:57:03.881Z,18.9109
2023-04-11T06:58:05.355Z,18.8747
2023-04-11T06:59:07.301Z,18.9976
2023-04-11T07:00:08.727Z,19.1448
2023-04-11T07:01:10.373Z,19.1888
2023-04-11T07:02:12.112Z,19.0606
2023-04-11T07:03:13.797Z,18.8996
2023-04-11T07:04:15.516Z,18.8918
2023-04-11T07:05:16.981Z,19.0366
2023-04-11T07:06:18.696Z,19.2270
2023-04-11T07:07:20.318Z,19.3009
2023-04-11T07:08:21.894Z,19.1911
2023-04-11T07:09:23.592Z,19.0419
2023-04-11T07:10:25.258Z,18.9854
2023-04-11T07:11:26.950Z,19.0547
2023-04-11T07:12:28.458Z,19.2309
2023-04-11T07:13:30.904Z,19.3299
2023-04-11T07:14:31.904Z,19.1982
2023-04-11T07:15:33.463Z,19.0300
2023-04-11T07:16:35.170Z,18.9842
2023-04-11T07:17:36.967Z,19.0797
2023-04-11T07:18:38.400Z,19.2757
2023-04-11T07:19:40.103Z,19.3636
2023-04-11T07:20:41.725Z,19.2574
2023-04-11T07:21:43.405Z,19.0824
2023-04-11T07:22:45.032Z,19.0352
2023-04-11T07:23:46.661Z,19.1777
2023-04-11T07:24:48.340Z,19.3511
2023-04-11T07:25:49.953Z,19.4133
2023-04-11T07:26:51.798Z,19.2923
2023-04-11T07:27:53.334Z,19.1617
2023-04-11T07:28:54.972Z,19.1278
2023-04-11T07:29:56.830Z,19.2527
2023-04-11T07:30:58.244Z,19.3909
2023-04-11T07:31:59.863Z,19.4170
2023-04-11T07:33:01.505Z,19.2823
2023-04-11T07:34:03.135Z,19.1492
2023-04-11T07:35:05.050Z,19.1222
2023-04-11T07:36:06.499Z,19.2408
2023-04-11T07:37:08.081Z,19.3868
2023-04-11T07:38:09.790Z,19.4462
2023-04-11T07:39:11.460Z,19.3718
2023-04-11T07:40:13.522Z,19.2124
2023-04-11T07:41:14.694Z,19.0943
2023-04-11T07:42:16.311Z,19.0417
2023-04-11T07:43:18.116Z,19.0594
2023-04-11T07:44:19.825Z,19.1185
2023-04-11T07:45:21.365Z,19.1995
2023-04-11T07:46:22.949Z,19.2445
2023-04-11T07:47:24.603Z,19.1900
2023-04-11T07:48:26.344Z,19.1387
2023-04-11T07:49:27.948Z,19.1229
2023-04-11T07:50:29.768Z,19.2823
2023-04-11T07:51:31.154Z,19.4213
2023-04-11T07:52:32.911Z,19.3636
2023-04-11T07:53:34.504Z,19.1561
2023-04-11T07:54:36.101Z,19.0888
2023-04-11T07:55:37.837Z,19.1584
2023-04-11T07:56:40.405Z,19.4014
2023-04-11T07:57:41.087Z,19.5441
2023-04-11T07:58:42.772Z,19.4951
2023-04-11T07:59:44.572Z,19.3628
2023-04-11T08:00:45.991Z,19.2617
2023-04-11T08:01:47.775Z,19.2537
2023-04-11T08:02:50.356Z,19.3129
2023-04-11T08:03:51.076Z,19.3946
2023-04-11T08:04:52.754Z,19.4123
2023-04-11T08:05:54.239Z,19.3149
2023-04-11T08:06:55.896Z,19.1956
2023-04-11T08:07:57.568Z,19.1744
2023-04-11T08:08:59.285Z,19.2213
2023-04-11T08:10:00.848Z,19.4030
2023-04-11T08:11:02.506Z,19.5456
2023-04-11T08:12:04.200Z,19.4755
2023-04-11T08:13:05.856Z,19.3065
2023-04-11T08:14:07.416Z,19.2966
2023-04-11T08:15:09.167Z,19.4421
2023-04-11T08:16:10.837Z,19.6879
2023-04-11T08:17:25.143Z,19.7888
2023-04-11T08:18:14.068Z,19.6886
2023-04-11T08:19:15.698Z,19.5300
2023-04-11T08:20:17.416Z,19.4922
2023-04-11T08:21:19.045Z,19.6183
2023-04-11T08:22:21.022Z,19.8227
2023-04-11T08:23:22.384Z,19.9278
2023-04-11T08:24:23.962Z,19.8543
2023-04-11T08:25:25.630Z,19.7307
2023-04-11T08:26:27.957Z,19.7274
2023-04-11T08:27:28.912Z,19.8664
2023-04-11T08:28:30.714Z,20.0478
2023-04-11T08:29:32.436Z,20.0429
2023-04-11T08:30:33.868Z,19.8566
2023-04-11T08:31:35.456Z,19.6343
2023-04-11T08:32:37.420Z,19.5709
2023-04-11T08:33:38.713Z,19.6799
2023-04-11T08:34:40.389Z,19.8007
2023-04-11T08:35:42.112Z,19.8434
2023-04-11T08:36:43.712Z,19.6678
2023-04-11T08:37:45.938Z,19.4778
2023-04-11T08:38:47.023Z,19.4472
2023-04-11T08:39:48.709Z,19.5867
2023-04-11T08:40:50.532Z,19.7432
2023-04-11T08:41:52.201Z,19.8044
2023-04-11T08:42:53.633Z,19.6838
2023-04-11T08:43:55.572Z,19.5133
2023-04-11T08:44:56.925Z,19.4957
2023-04-11T08:45:58.569Z,19.5552
2023-04-11T08:47:00.283Z,19.6448
2023-04-11T08:48:01.907Z,19.7420
2023-04-11T08:49:03.703Z,19.8112
2023-04-11T08:50:05.091Z,19.7224
2023-04-11T08:51:06.807Z,19.6253
2023-04-11T08:52:08.807Z,19.6520
2023-04-11T08:53:10.055Z,19.8083
2023-04-11T08:54:11.726Z,19.9847
2023-04-11T08:55:13.413Z,19.9556
2023-04-11T08:56:15.023Z,19.7132
2023-04-11T08:57:16.722Z,19.4928
2023-04-11T08:58:18.414Z,19.5505
2023-04-11T08:59:20.052Z,19.7795
2023-04-11T09:00:21.613Z,19.9486
2023-04-11T09:01:23.355Z,19.9420
2023-04-11T09:02:25.109Z,19.6918
2023-04-11T09:03:26.605Z,19.5417
2023-04-11T09:04:29.073Z,19.6994
2023-04-11T09:05:30.202Z,20.0014
2023-04-11T09:06:31.598Z,20.1427
2023-04-11T09:07:33.216Z,19.9739
2023-04-11T09:08:34.830Z,19.6684
2023-04-11T09:09:36.471Z,19.5861
2023-04-11T09:10:38.089Z,19.7947
2023-04-11T09:11:39.764Z,20.0727
2023-04-11T09:12:41.408Z,20.2078
2023-04-11T09:13:43.817Z,20.0363
2023-04-11T09:14:44.694Z,19.7514
2023-04-11T09:15:46.451Z,19.7761
2023-04-11T09:16:47.898Z,20.0854
2023-04-11T09:17:49.546Z,20.4221
2023-04-11T09:18:51.209Z,20.5311
2023-04-11T09:19:52.872Z,20.2861
2023-04-11T09:20:54.584Z,19.9991
2023-04-11T09:21:56.205Z,20.0377
2023-04-11T09:22:57.821Z,20.3405
2023-04-11T09:23:59.427Z,20.6460
2023-04-11T09:25:01.146Z,20.6694
2023-04-11T09:26:02.840Z,20.3925
2023-04-11T09:27:04.454Z,20.1998
2023-04-11T09:28:06.137Z,20.2528
2023-04-11T09:29:07.746Z,20.5484
2023-04-11T09:30:09.397Z,20.7852
2023-04-11T09:31:11.423Z,20.7166
2023-04-11T09:32:13.403Z,20.3742
2023-04-11T09:33:14.359Z,20.2169
2023-04-11T09:34:16.414Z,20.3847
2023-04-11T09:35:18.236Z,20.7061
2023-04-11T09:36:19.330Z,20.8495
2023-04-11T09:37:21.050Z,20.6137
2023-04-11T09:38:22.825Z,20.2438
2023-04-11T09:39:24.296Z,20.1700
2023-04-11T09:40:25.905Z,20.3518
2023-04-11T09:41:27.813Z,20.6043
2023-04-11T09:42:29.311Z,20.6840
2023-04-11T09:43:30.922Z,20.4576
2023-04-11T09:44:32.701Z,20.1415
2023-04-11T09:45:44.212Z,20.1045
2023-04-11T09:46:35.809Z,20.3230
2023-04-11T09:47:37.498Z,20.5999
2023-04-11T09:48:46.502Z,20.7355
2023-04-11T09:49:40.837Z,20.5019
2023-04-11T09:50:42.448Z,20.1875
2023-04-11T09:51:44.025Z,20.1365
2023-04-11T09:52:45.689Z,20.3919
2023-04-11T09:53:47.397Z,20.6729
2023-04-11T09:54:48.980Z,20.7963
2023-04-11T09:55:50.662Z,20.5866
2023-04-11T09:56:52.348Z,20.2431
2023-04-11T09:57:54.918Z,20.2571
2023-04-11T09:58:55.872Z,20.5432
2023-04-11T09:59:58.789Z,20.7760
2023-04-11T10:00:58.814Z,20.8169
2023-04-11T10:02:00.625Z,20.5398
2023-04-11T10:03:02.613Z,20.3376
2023-04-11T10:04:04.589Z,20.4198
2023-04-11T10:05:05.609Z,20.7770
2023-04-11T10:06:07.215Z,21.0559
2023-04-11T10:07:08.842Z,21.0855
2023-04-11T10:08:10.515Z,20.7450
2023-04-11T10:09:12.182Z,20.5346
2023-04-11T10:10:13.783Z,20.6540
2023-04-11T10:11:15.438Z,20.9417
2023-04-11T10:12:17.149Z,21.1706
2023-04-11T10:13:18.840Z,21.1285
2023-04-11T10:14:20.532Z,20.8212
2023-04-11T10:15:21.981Z,20.5921
2023-04-11T10:16:23.821Z,20.7197
2023-04-11T10:17:25.411Z,21.0927
2023-04-11T10:18:27.004Z,21.3203
2023-04-11T10:19:28.686Z,21.2556
2023-04-11T10:20:30.319Z,20.9366
2023-04-11T10:21:32.026Z,20.7577
2023-04-11T10:22:33.576Z,20.8848
2023-04-11T10:23:35.272Z,21.2234
2023-04-11T10:24:36.972Z,21.4308
2023-04-11T10:25:38.559Z,21.2761
2023-04-11T10:26:40.173Z,20.9294
2023-04-11T10:27:41.841Z,20.8053
2023-04-11T10:28:43.726Z,20.9717
2023-04-11T10:29:45.282Z,21.2256
2023-04-11T10:30:46.866Z,21.3651
2023-04-11T10:31:48.634Z,21.1956
2023-04-11T10:32:50.191Z,20.8394
2023-04-11T10:33:51.989Z,20.7365
2023-04-11T10:34:53.556Z,20.9399
2023-04-11T10:35:55.171Z,21.2462
2023-04-11T10:36:56.764Z,21.3314
2023-04-11T10:37:58.990Z,21.0886
2023-04-11T10:39:00.090Z,20.7682
2023-04-11T10:40:01.816Z,20.7232
2023-04-11T10:41:03.470Z,21.0249
2023-04-11T10:42:05.032Z,21.3493
2023-04-11T10:43:07.499Z,21.3815
2023-04-11T10:44:08.362Z,21.0566
2023-04-11T10:45:10.144Z,20.7300
2023-04-11T10:46:11.590Z,20.6665
2023-04-11T10:47:13.593Z,20.9413
2023-04-11T10:48:14.911Z,21.1636
2023-04-11T10:49:16.578Z,21.1743
2023-04-11T10:50:18.655Z,20.8797
2023-04-11T10:51:19.891Z,20.5496
2023-04-11T10:52:21.570Z,20.5071
2023-04-11T10:53:23.217Z,20.7819
2023-04-11T10:54:24.883Z,21.0496
2023-04-11T10:55:27.086Z,21.0516
2023-04-11T10:56:28.184Z,20.7281
2023-04-11T10:57:29.841Z,20.4420
2023-04-11T10:58:31.475Z,20.4280
2023-04-11T10:59:33.097Z,20.7476
2023-04-11T11:00:35.198Z,21.0412
2023-04-11T11:01:42.966Z,21.0262
2023-04-11T11:02:38.425Z,20.6499
2023-04-11T11:03:39.926Z,20.3524
2023-04-11T11:04:41.417Z,20.4288
2023-04-11T11:05:42.997Z,20.7452
2023-04-11T11:06:51.103Z,21.0214
2023-04-11T11:07:46.251Z,20.9939
2023-04-11T11:08:48.397Z,20.6743
2023-04-11T11:09:49.514Z,20.4578
2023-04-11T11:10:51.274Z,20.5971
2023-04-11T11:11:52.818Z,20.9847
2023-04-11T11:12:54.549Z,21.2708
2023-04-11T11:13:56.490Z,21.2104
2023-04-11T11:14:57.814Z,20.8101
2023-04-11T11:15:59.418Z,20.5587
2023-04-11T11:17:01.222Z,20.5617
2023-04-11T11:18:02.756Z,20.9087
2023-04-11T11:19:04.872Z,21.1437
2023-04-11T11:20:06.039Z,21.0841
2023-04-11T11:21:14.170Z,20.7573
2023-04-11T11:22:09.307Z,20.5082
2023-04-11T11:23:14.125Z,20.6365
2023-04-11T11:24:17.585Z,20.9872
2023-04-11T11:25:19.189Z,21.1338
2023-04-11T11:26:20.806Z,20.9483
2023-04-11T11:27:22.413Z,20.5459
2023-04-11T11:28:24.169Z,20.2789
2023-04-11T11:29:25.798Z,20.4149
2023-04-11T11:30:27.357Z,20.7774
2023-04-11T11:31:30.033Z,20.9483
2023-04-11T11:32:30.641Z,20.7749
2023-04-11T11:33:32.396Z,20.4007
2023-04-11T11:34:34.056Z,20.2783
2023-04-11T11:35:35.688Z,20.4523
2023-04-11T11:36:37.249Z,20.7487
2023-04-11T11:37:38.896Z,20.9159
2023-04-11T11:38:41.390Z,20.7715
2023-04-11T11:39:42.238Z,20.3972
2023-04-11T11:40:43.807Z,20.1978
2023-04-11T11:41:46.560Z,20.3520
2023-04-11T11:42:47.140Z,20.6807
2023-04-11T11:43:48.736Z,20.8290
2023-04-11T11:44:50.550Z,20.6275
2023-04-11T11:45:52.138Z,20.2070
2023-04-11T11:46:53.742Z,20.0503
2023-04-11T11:47:55.886Z,20.2920
2023-04-11T11:48:57.288Z,20.6273
2023-04-11T11:49:58.668Z,20.7575
2023-04-11T11:51:01.008Z,20.5564
2023-04-11T11:52:02.099Z,20.1817
2023-04-11T11:53:03.702Z,20.0934
2023-04-11T11:54:05.351Z,20.3949
2023-04-11T11:55:10.860Z,20.8460
2023-04-11T11:56:08.713Z,21.1099
2023-04-11T11:57:10.680Z,21.0153
2023-04-11T11:58:12.153Z,20.7832
2023-04-11T11:59:13.672Z,20.7382
2023-04-11T12:00:15.290Z,20.9033
2023-04-11T12:01:17.196Z,21.0855
2023-04-11T12:02:18.691Z,21.0171
2023-04-11T12:03:20.608Z,20.7521
2023-04-11T12:04:22.189Z,20.5587
2023-04-11T12:05:23.864Z,20.6110
2023-04-11T12:06:25.419Z,20.8672
2023-04-11T12:07:27.010Z,21.0740
2023-04-11T12:08:28.553Z,21.0471
2023-04-11T12:09:30.208Z,20.9267
2023-04-11T12:10:31.894Z,20.8388
2023-04-11T12:11:34.013Z,20.9233
2023-04-11T12:12:35.180Z,21.1065
2023-04-11T12:13:36.856Z,21.1866
2023-04-11T12:14:38.417Z,21.0424
2023-04-11T12:15:40.100Z,20.8542
2023-04-11T12:16:41.798Z,20.8080
2023-04-11T12:17:43.435Z,20.9426
2023-04-11T12:18:45.131Z,21.1241
2023-04-11T12:19:46.776Z,21.1391
2023-04-11T12:20:48.364Z,21.0274
2023-04-11T12:21:50.030Z,20.8637
2023-04-11T12:22:53.674Z,20.8425
2023-04-11T12:23:53.540Z,20.9443
2023-04-11T12:24:54.840Z,21.1079
2023-04-11T12:25:56.668Z,21.1172